Terminal Aerodrome Forecast
Issued by NWS

Home | Current Version | Previous Version | Graphics & Text | Print | Product List | Glossary On
Versions: 1 2 3 4 5 6 7 8 9 10 11 12 13 14 15 16 17 18 19 20 21 22 23
106
FTUS43 KBIS 181122
TAFMOT
TAF
KMOT 181122Z 1812/1912 26008KT P6SM SCT150
     FM181800 34005KT P6SM BKN110
     FM182000 04005KT P6SM OVC060
     FM190400 07007KT P6SM BKN015
     FM190900 07008KT P6SM BKN003=

USA.gov is the U.S. government's official web portal to all federal, state and local government web resources and services.